Time;durP1;ratioP1;P1;durP2;ratioP2;P2;SDS_P1;SDS_P2;PMS_P1;PMS_P2;Temp;Humidity;BMP_temperature;BMP_pressure;BME280_temperature;BME280_humidity;BME280_pressure;Samples;Min_cycle;Max_cycle;Signal;HPM_P1;HPM_P2
2022/01/02 00:01:47;;;;;;;27.30;13.40;;;10.30;99.90;;;;;;5025064;28;20366;-74
2022/01/02 00:04:17;;;;;;;35.63;13.65;;;10.30;99.90;;;;;;5034160;28;20072;-73
2022/01/02 00:06:52;;;;;;;29.73;13.93;;;10.30;99.90;;;;;;5034516;28;20029;-74
2022/01/02 00:09:31;;;;;;;30.65;12.75;;;10.20;99.90;;;;;;5029478;28;20025;-73
2022/01/02 00:12:13;;;;;;;30.83;14.80;;;10.30;99.90;;;;;;5029417;28;20022;-73
2022/01/02 00:14:46;;;;;;;30.48;14.27;;;10.40;99.90;;;;;;5053226;23;20524;-76
2022/01/02 00:17:13;;;;;;;33.58;14.77;;;10.40;99.90;;;;;;5016132;28;20022;-77
2022/01/02 00:19:41;;;;;;;38.50;14.82;;;10.40;99.90;;;;;;5015669;28;20145;-77
2022/01/02 00:22:14;;;;;;;31.20;13.32;;;10.40;99.90;;;;;;5015830;28;20018;-77
2022/01/02 00:24:44;;;;;;;;;;;10.50;99.90;;;;;;5016115;28;20022;-77
2022/01/02 00:27:13;;;;;;;31.23;13.10;;;10.50;99.90;;;;;;5015683;28;19905;-77
2022/01/02 00:29:41;;;;;;;36.72;13.48;;;10.50;99.90;;;;;;5014344;28;20080;-76
2022/01/02 00:32:08;;;;;;;26.00;12.32;;;10.60;99.90;;;;;;5014341;28;20026;-77
2022/01/02 00:34:39;;;;;;;30.45;12.20;;;10.60;99.90;;;;;;5014930;28;20409;-77
2022/01/02 00:37:06;;;;;;;30.65;12.90;;;10.60;99.90;;;;;;5017431;28;20026;-77
2022/01/02 00:39:31;;;;;;;33.28;13.10;;;10.60;99.90;;;;;;5025611;28;20109;-77
2022/01/02 00:42:05;;;;;;;29.63;12.20;;;10.50;99.90;;;;;;5029589;28;20064;-77
2022/01/02 00:44:58;;;;;;;29.02;12.20;;;10.60;99.90;;;;;;5034551;28;20029;-77
2022/01/02 00:47:36;;;;;;;34.60;12.77;;;10.60;99.90;;;;;;5035152;28;20111;-77
2022/01/02 00:50:20;;;;;;;28.33;13.07;;;10.60;99.90;;;;;;5035331;28;20533;-77
2022/01/02 00:52:49;;;;;;;28.50;13.35;;;10.50;99.90;;;;;;5034406;28;20065;-77
2022/01/02 00:55:25;;;;;;;31.35;13.38;;;10.50;99.90;;;;;;5034884;28;20021;-77
2022/01/02 00:58:17;;;;;;;29.92;12.70;;;10.50;99.90;;;;;;5035094;28;20032;-77
2022/01/02 01:00:49;;;;;;;30.80;13.60;;;10.50;99.90;;;;;;5032121;28;20030;-77
2022/01/02 01:03:25;;;;;;;30.77;13.57;;;10.60;99.90;;;;;;5034154;28;20025;-77
2022/01/02 01:05:53;;;;;;;32.50;13.88;;;10.50;99.90;;;;;;5035043;28;20052;-77
2022/01/02 01:08:21;;;;;;;32.03;13.15;;;10.50;99.90;;;;;;5034660;28;20030;-77
2022/01/02 01:10:48;;;;;;;38.85;15.00;;;10.50;99.90;;;;;;5033484;28;20108;-77
2022/01/02 01:13:14;;;;;;;33.20;14.70;;;10.40;99.90;;;;;;5034466;28;20056;-77
2022/01/02 01:15:40;;;;;;;29.92;13.77;;;10.40;99.90;;;;;;5033647;28;20053;-77
2022/01/02 01:18:06;;;;;;;36.33;14.55;;;10.40;99.90;;;;;;5034602;28;20393;-77
2022/01/02 01:20:44;;;;;;;36.35;14.68;;;10.40;99.90;;;;;;5034468;28;20029;-77
2022/01/02 01:23:17;;;;;;;30.80;14.60;;;10.40;99.90;;;;;;5034609;28;20436;-77
2022/01/02 01:25:48;;;;;;;22.83;13.45;;;10.40;99.90;;;;;;5033247;28;20022;-77
2022/01/02 01:28:15;;;;;;;34.63;15.35;;;10.40;99.90;;;;;;5033913;28;20049;-77
2022/01/02 01:30:41;;;;;;;30.67;14.25;;;10.40;99.90;;;;;;5034349;28;20033;-77
2022/01/02 01:33:07;;;;;;;35.83;14.20;;;10.30;99.90;;;;;;5034452;28;20063;-77
2022/01/02 01:35:34;;;;;;;29.55;14.18;;;10.40;99.90;;;;;;5034463;28;20026;-77
2022/01/02 01:38:00;;;;;;;31.23;12.73;;;10.40;99.90;;;;;;5034457;28;20112;-77
2022/01/02 01:40:29;;;;;;;39.22;13.98;;;10.50;99.90;;;;;;5034060;28;20105;-77
2022/01/02 01:42:57;;;;;;;28.05;13.10;;;10.50;99.90;;;;;;5033397;28;20124;-77
2022/01/02 01:47:57;;;;;;;29.05;13.07;;;10.70;99.90;;;;;;5034286;28;20113;-77
2022/01/02 01:50:26;;;;;;;28.92;12.95;;;10.70;99.90;;;;;;5033955;28;20084;-77
2022/01/02 01:52:52;;;;;;;34.20;13.63;;;10.70;99.90;;;;;;5033233;28;20029;-77
2022/01/02 01:55:17;;;;;;;30.65;13.55;;;10.70;99.90;;;;;;5034280;28;20025;-77
2022/01/02 01:57:43;;;;;;;28.15;12.88;;;10.70;99.90;;;;;;5032547;28;20022;-77
2022/01/02 02:00:19;;;;;;;33.33;11.90;;;10.70;99.90;;;;;;5032608;28;20030;-77
2022/01/02 02:02:45;;;;;;;32.83;12.88;;;10.60;99.90;;;;;;5033197;28;20029;-77
2022/01/02 02:05:12;;;;;;;41.97;12.82;;;10.70;99.90;;;;;;5034110;28;20472;-77
2022/01/02 02:07:42;;;;;;;29.15;13.13;;;10.60;99.90;;;;;;5032419;28;20127;-76
2022/01/02 02:10:16;;;;;;;32.88;12.20;;;10.60;99.90;;;;;;5033960;28;20017;-77
2022/01/02 02:12:44;;;;;;;26.63;13.10;;;10.50;99.90;;;;;;5033479;28;20040;-76
2022/01/02 02:15:11;;;;;;;34.88;13.55;;;10.60;99.90;;;;;;5033137;28;20033;-77
2022/01/02 02:17:37;;;;;;;28.50;13.40;;;10.50;99.90;;;;;;5033515;28;20024;-77
2022/01/02 02:20:26;;;;;;;30.17;13.77;;;10.50;99.90;;;;;;5032250;28;20108;-77
2022/01/02 02:22:55;;;;;;;37.50;13.30;;;10.50;99.90;;;;;;5033427;28;20029;-77
2022/01/02 02:25:23;;;;;;;36.60;13.90;;;10.40;99.90;;;;;;5034246;28;20523;-77
2022/01/02 02:27:58;;;;;;;40.53;12.73;;;10.30;99.90;;;;;;5032653;28;20121;-77
2022/01/02 02:30:26;;;;;;;34.97;13.52;;;10.30;99.90;;;;;;5032941;28;20107;-77
2022/01/02 02:32:55;;;;;;;39.97;14.25;;;10.30;99.90;;;;;;5033211;28;20107;-77
2022/01/02 02:35:20;;;;;;;35.03;14.70;;;10.30;99.90;;;;;;5032131;28;20025;-77
2022/01/02 02:37:46;;;;;;;33.92;14.00;;;10.20;99.90;;;;;;5033219;28;20384;-77
2022/01/02 02:40:13;;;;;;;34.75;14.75;;;10.20;99.90;;;;;;5031473;28;20029;-77
2022/01/02 02:43:08;;;;;;;39.95;13.82;;;10.20;99.90;;;;;;5033390;28;20432;-76
2022/01/02 02:51:02;;;;;;;44.20;13.73;;;10.10;99.90;;;;;;5032961;28;20115;-77
2022/01/02 02:53:27;;;;;;;51.72;14.23;;;10.10;99.90;;;;;;5034013;28;20087;-77
2022/01/02 02:55:56;;;;;;;42.40;13.93;;;10.00;99.90;;;;;;5031829;28;20504;-77
2022/01/02 03:01:01;;;;;;;40.83;14.07;;;10.00;99.90;;;;;;5032863;28;20022;-77
2022/01/02 03:03:27;;;;;;;34.97;13.43;;;9.90;99.90;;;;;;5032964;28;20120;-77
2022/01/02 03:05:53;;;;;;;39.85;14.45;;;10.00;99.90;;;;;;5033005;28;20531;-77
2022/01/02 03:08:18;;;;;;;43.55;15.32;;;10.00;99.90;;;;;;5032612;28;20116;-77
2022/01/02 03:10:44;;;;;;;43.53;14.25;;;10.00;99.90;;;;;;5031640;28;20095;-77
2022/01/02 03:13:10;;;;;;;37.53;15.23;;;9.90;99.90;;;;;;5032917;28;20083;-77
2022/01/02 03:15:35;;;;;;;42.40;15.05;;;9.90;99.90;;;;;;5031603;28;20029;-77
2022/01/02 03:18:01;;;;;;;42.88;14.73;;;9.90;99.90;;;;;;5031678;28;20597;-77
2022/01/02 03:20:26;;;;;;;47.63;15.80;;;9.90;99.90;;;;;;5033005;28;20091;-77
2022/01/02 03:22:52;;;;;;;48.65;14.40;;;9.90;99.90;;;;;;5032165;28;20029;-77
2022/01/02 03:25:17;;;;;;;37.47;14.95;;;9.90;99.90;;;;;;5032993;28;20425;-77
2022/01/02 03:27:44;;;;;;;40.60;15.63;;;9.90;99.90;;;;;;5032755;28;20022;-77
2022/01/02 03:30:13;;;;;;;35.55;14.43;;;9.90;99.90;;;;;;5032775;28;20021;-77
2022/01/02 03:32:39;;;;;;;35.13;14.70;;;9.80;99.90;;;;;;5032999;28;20022;-77
2022/01/02 03:35:05;;;;;;;39.63;15.32;;;9.80;99.90;;;;;;5032051;28;20396;-76
2022/01/02 03:37:33;;;;;;;40.97;15.48;;;9.90;99.90;;;;;;5032144;28;20397;-77
2022/01/02 03:39:59;;;;;;;39.28;15.52;;;9.90;99.90;;;;;;5035643;28;20021;-77
2022/01/02 03:42:25;;;;;;;45.22;16.88;;;9.90;99.90;;;;;;5036420;28;20033;-77
2022/01/02 03:44:51;;;;;;;47.78;15.85;;;9.90;99.90;;;;;;5036406;28;20036;-77
2022/01/02 03:47:16;;;;;;;32.85;15.95;;;9.90;99.90;;;;;;5035914;28;20022;-77
2022/01/02 03:49:42;;;;;;;45.95;16.40;;;9.90;99.90;;;;;;5036289;28;20017;-77
2022/01/02 03:52:08;;;;;;;48.08;17.42;;;9.90;99.90;;;;;;5036220;28;20025;-77
2022/01/02 03:54:34;;;;;;;46.22;16.33;;;9.90;99.90;;;;;;5036107;28;20017;-77
2022/01/02 03:56:59;;;;;;;44.00;16.95;;;9.90;99.90;;;;;;5034864;28;20072;-77
2022/01/02 03:59:25;;;;;;;54.83;16.77;;;9.90;99.90;;;;;;5036580;28;20095;-77
2022/01/02 04:01:50;;;;;;;56.50;16.50;;;9.90;99.90;;;;;;5035379;28;20030;-76
2022/01/02 04:04:17;;;;;;;42.22;15.57;;;9.90;99.90;;;;;;5036116;28;20033;-77
2022/01/02 04:06:42;;;;;;;31.63;15.00;;;9.90;99.90;;;;;;5035946;28;20018;-77
2022/01/02 04:09:08;;;;;;;39.75;14.73;;;9.90;99.90;;;;;;5035884;28;20112;-77
2022/01/02 04:11:34;;;;;;;33.42;15.15;;;10.00;99.90;;;;;;5035509;28;20057;-77
2022/01/02 04:13:59;;;;;;;45.42;14.88;;;9.90;99.90;;;;;;5034359;28;20044;-77
2022/01/02 04:16:25;;;;;;;29.35;14.70;;;9.90;99.90;;;;;;5034409;28;20025;-77
2022/01/02 04:18:50;;;;;;;39.40;14.27;;;10.00;99.90;;;;;;5035699;28;20436;-77
2022/01/02 04:21:16;;;;;;;37.65;14.23;;;10.00;99.90;;;;;;5035638;28;20401;-77
2022/01/02 04:23:42;;;;;;;51.47;16.63;;;10.10;99.90;;;;;;5034912;28;20037;-77
2022/01/02 04:26:08;;;;;;;38.72;13.68;;;10.10;99.90;;;;;;5035521;28;20022;-77
2022/01/02 04:28:34;;;;;;;37.78;14.90;;;10.20;99.90;;;;;;5035572;28;20021;-77
2022/01/02 04:30:59;;;;;;;35.95;15.82;;;10.20;99.90;;;;;;5034231;28;20056;-77
2022/01/02 04:33:26;;;;;;;41.03;14.68;;;10.20;99.90;;;;;;5034844;28;20053;-77
2022/01/02 04:35:51;;;;;;;41.83;15.32;;;10.20;99.90;;;;;;5035633;28;20493;-77
2022/01/02 04:38:17;;;;;;;54.28;16.10;;;10.20;99.90;;;;;;5035347;28;20112;-77
2022/01/02 04:40:43;;;;;;;40.33;15.45;;;10.20;99.90;;;;;;5035272;28;20022;-77
2022/01/02 04:43:08;;;;;;;48.38;15.50;;;10.10;99.90;;;;;;5035098;28;20036;-76
2022/01/02 04:45:34;;;;;;;41.03;14.85;;;10.10;99.90;;;;;;5035271;28;20030;-77
2022/01/02 04:48:00;;;;;;;40.92;15.35;;;10.10;99.90;;;;;;5034630;28;20021;-77
2022/01/02 04:50:26;;;;;;;37.92;15.25;;;10.10;99.90;;;;;;5034259;28;20025;-77
2022/01/02 04:52:51;;;;;;;31.55;14.02;;;10.10;99.90;;;;;;5035065;28;20155;-76
2022/01/02 04:55:17;;;;;;;31.77;14.52;;;10.10;99.90;;;;;;5034987;28;20037;-77
2022/01/02 04:57:43;;;;;;;36.17;15.02;;;10.10;99.90;;;;;;5034483;28;20025;-77
2022/01/02 05:00:09;;;;;;;36.78;15.77;;;10.00;99.90;;;;;;5034886;28;20048;-77
2022/01/02 05:02:35;;;;;;;39.25;14.60;;;10.00;99.90;;;;;;5034821;28;20029;-77
2022/01/02 05:05:00;;;;;;;44.30;15.73;;;10.10;99.90;;;;;;5035040;28;20029;-77
2022/01/02 05:07:26;;;;;;;33.65;14.25;;;10.10;99.90;;;;;;5034789;28;20452;-77
2022/01/02 05:09:51;;;;;;;34.63;14.07;;;10.10;99.90;;;;;;5034221;28;20433;-77
2022/01/02 05:12:17;;;;;;;42.03;13.90;;;10.10;99.90;;;;;;5034779;28;20026;-77
2022/01/02 05:14:42;;;;;;;40.90;15.32;;;10.20;99.90;;;;;;5034705;28;20038;-77
2022/01/02 05:17:08;;;;;;;34.17;13.85;;;10.20;99.90;;;;;;5034614;28;20028;-77
2022/01/02 05:19:34;;;;;;;38.92;14.40;;;10.30;99.90;;;;;;5034041;28;20025;-77
2022/01/02 05:22:00;;;;;;;41.33;15.05;;;10.30;99.90;;;;;;5034503;28;20052;-77
2022/01/02 05:24:25;;;;;;;30.48;13.43;;;10.30;99.90;;;;;;5034273;28;20025;-77
2022/01/02 05:26:53;;;;;;;51.72;16.38;;;10.20;99.90;;;;;;5034683;28;20102;-77
2022/01/02 05:29:19;;;;;;;51.47;15.27;;;10.20;99.90;;;;;;5034413;28;20494;-77
2022/01/02 05:31:45;;;;;;;36.17;15.43;;;10.20;99.90;;;;;;5034628;28;20033;-77
2022/01/02 05:34:10;;;;;;;50.65;15.73;;;10.20;99.90;;;;;;5033773;28;20033;-77
2022/01/02 05:36:36;;;;;;;36.75;14.10;;;10.20;99.90;;;;;;5034475;28;20551;-77
2022/01/02 05:39:02;;;;;;;45.42;15.20;;;10.20;99.90;;;;;;5034100;28;20072;-76
2022/01/02 05:41:29;;;;;;;37.50;14.43;;;10.20;99.90;;;;;;5034375;28;20496;-77
2022/01/02 05:43:56;;;;;;;45.00;14.93;;;10.30;99.90;;;;;;5034037;28;20075;-77
2022/01/02 05:46:22;;;;;;;40.45;16.33;;;10.30;99.90;;;;;;5033589;28;20212;-77
2022/01/02 05:48:48;;;;;;;42.15;17.17;;;10.20;99.90;;;;;;5034043;28;20026;-77
2022/01/02 05:51:13;;;;;;;43.78;16.40;;;10.30;99.90;;;;;;5034219;28;20022;-77
2022/01/02 05:53:39;;;;;;;43.35;15.88;;;10.30;99.90;;;;;;5033852;28;20084;-77
2022/01/02 05:56:05;;;;;;;44.55;16.73;;;10.30;99.90;;;;;;5033861;28;20025;-77
2022/01/02 05:58:31;;;;;;;48.28;16.35;;;10.30;99.90;;;;;;5033431;28;20428;-77
2022/01/02 06:00:56;;;;;;;49.88;18.33;;;10.30;99.90;;;;;;5033775;28;20057;-77
2022/01/02 06:03:22;;;;;;;34.70;16.00;;;10.30;99.90;;;;;;5032415;28;20079;-77
2022/01/02 06:05:48;;;;;;;71.88;21.73;;;10.40;99.90;;;;;;5033654;28;20026;-77
2022/01/02 06:08:13;;;;;;;42.90;18.83;;;10.40;99.90;;;;;;5033637;28;20037;-77
2022/01/02 06:10:39;;;;;;;55.63;19.05;;;10.40;99.90;;;;;;5033294;28;20171;-77
2022/01/02 06:13:04;;;;;;;49.35;19.17;;;10.40;99.90;;;;;;5033452;28;20064;-76
2022/01/02 06:15:30;;;;;;;53.72;20.33;;;10.40;99.90;;;;;;5133997;23;20066;-74
2022/01/02 06:17:56;;;;;;;55.75;19.73;;;10.30;99.90;;;;;;5033305;28;20092;-74
2022/01/02 06:20:21;;;;;;;49.40;20.88;;;10.30;99.90;;;;;;5033438;28;20032;-75
2022/01/02 06:22:47;;;;;;;56.15;22.27;;;10.30;99.90;;;;;;5033340;28;20108;-74
2022/01/02 06:25:12;;;;;;;48.85;21.88;;;10.40;99.90;;;;;;5032902;28;20029;-74
2022/01/02 06:27:39;;;;;;;71.82;25.85;;;10.40;99.90;;;;;;5033344;28;20026;-74
2022/01/02 06:30:05;;;;;;;69.07;27.70;;;10.50;99.90;;;;;;5033523;28;20022;-74
2022/01/02 06:32:31;;;;;;;64.45;28.17;;;10.50;99.90;;;;;;5033565;28;20032;-74
2022/01/02 06:34:56;;;;;;;61.17;27.80;;;10.50;99.90;;;;;;5032837;28;20029;-73
2022/01/02 06:37:22;;;;;;;83.32;30.45;;;10.50;99.90;;;;;;5033234;28;20021;-74
2022/01/02 06:39:47;;;;;;;71.80;30.02;;;10.50;99.90;;;;;;5033175;28;20024;-74
2022/01/02 06:42:13;;;;;;;58.53;27.55;;;10.50;99.90;;;;;;5033460;28;20037;-74
2022/01/02 06:44:38;;;;;;;67.60;30.73;;;10.50;99.90;;;;;;5032749;28;20037;-74
2022/01/02 06:47:04;;;;;;;67.22;32.08;;;10.50;99.90;;;;;;5032793;28;20021;-74
2022/01/02 06:49:30;;;;;;;69.90;31.55;;;10.50;99.90;;;;;;5033377;28;20026;-74
2022/01/02 06:51:55;;;;;;;71.78;31.08;;;10.50;99.90;;;;;;5033111;28;20021;-73
2022/01/02 06:54:21;;;;;;;85.68;33.88;;;10.50;99.90;;;;;;5032971;28;20032;-74
2022/01/02 06:56:46;;;;;;;82.47;33.85;;;10.40;99.90;;;;;;5032602;28;20029;-74
2022/01/02 06:59:12;;;;;;;85.10;34.35;;;10.30;99.90;;;;;;5033019;28;20560;-74
2022/01/02 07:01:37;;;;;;;96.80;36.17;;;10.30;99.90;;;;;;5032981;28;20109;-74
2022/01/02 07:04:03;;;;;;;78.15;36.28;;;10.20;99.90;;;;;;5015167;28;20120;-73
2022/01/02 07:06:28;;;;;;;89.18;34.13;;;10.20;99.90;;;;;;5032925;28;20552;-74
2022/01/02 07:08:54;;;;;;;88.63;34.22;;;10.20;99.90;;;;;;5032406;28;20017;-73
2022/01/02 07:11:19;;;;;;;94.60;36.75;;;10.20;99.90;;;;;;5015236;28;20068;-74
2022/01/02 07:13:45;;;;;;;109.45;40.95;;;10.10;99.90;;;;;;5016189;28;20075;-75
2022/01/02 07:16:11;;;;;;;126.05;37.30;;;10.10;99.90;;;;;;5036860;28;20030;-74
2022/01/02 07:18:36;;;;;;;96.43;36.10;;;10.10;99.90;;;;;;5037077;28;20033;-74
2022/01/02 07:21:02;;;;;;;97.90;34.83;;;10.10;99.90;;;;;;5036297;28;20083;-74
2022/01/02 07:23:27;;;;;;;144.00;39.00;;;10.10;99.90;;;;;;5036563;28;20021;-74
2022/01/02 07:25:53;;;;;;;109.30;33.70;;;10.10;99.90;;;;;;5036649;28;20025;-75
2022/01/02 07:28:20;;;;;;;98.05;33.10;;;10.10;99.90;;;;;;5018689;28;20028;-74
2022/01/02 07:30:45;;;;;;;109.93;33.88;;;10.10;99.90;;;;;;5018646;28;20052;-74
2022/01/02 07:33:11;;;;;;;127.13;35.63;;;10.10;99.90;;;;;;5018770;28;20091;-74
2022/01/02 07:35:36;;;;;;;119.90;36.08;;;10.10;99.90;;;;;;5036731;28;20134;-74
2022/01/02 07:38:02;;;;;;;99.88;33.97;;;10.10;99.90;;;;;;5035965;28;20435;-74
2022/01/02 07:40:27;;;;;;;127.50;35.88;;;10.10;99.90;;;;;;5037106;28;20531;-79
2022/01/02 07:42:53;;;;;;;105.68;33.97;;;10.10;99.90;;;;;;5036860;28;20060;-75
2022/01/02 07:45:19;;;;;;;113.05;35.28;;;10.10;99.90;;;;;;5018549;28;20037;-74
2022/01/02 07:47:46;;;;;;;90.75;33.17;;;10.00;99.90;;;;;;5030043;28;20029;-75
2022/01/02 07:50:12;;;;;;;133.60;36.10;;;10.10;99.90;;;;;;5016206;28;20025;-74
2022/01/02 07:52:38;;;;;;;109.60;36.53;;;10.10;99.90;;;;;;5002803;28;20064;-74
2022/01/02 07:55:03;;;;;;;88.40;31.67;;;10.10;99.90;;;;;;5016291;28;20073;-75
2022/01/02 07:57:29;;;;;;;94.35;34.38;;;10.10;99.90;;;;;;5015070;28;20035;-75
2022/01/02 07:59:55;;;;;;;112.65;36.60;;;10.10;99.90;;;;;;5015799;28;20445;-74
2022/01/02 08:02:20;;;;;;;102.47;33.30;;;10.10;99.90;;;;;;5032188;28;20032;-75
2022/01/02 08:04:46;;;;;;;95.18;34.50;;;10.10;99.90;;;;;;5035897;28;20037;-75
2022/01/02 08:07:11;;;;;;;84.93;34.28;;;10.10;99.90;;;;;;5014261;28;20454;-74
2022/01/02 08:09:37;;;;;;;83.13;33.70;;;10.10;99.90;;;;;;5016309;28;20552;-74
2022/01/02 08:12:02;;;;;;;78.07;33.22;;;10.10;99.90;;;;;;5016063;28;20022;-74
2022/01/02 08:14:28;;;;;;;92.30;33.67;;;10.00;99.90;;;;;;5015856;28;20041;-74
2022/01/02 08:16:54;;;;;;;89.25;34.78;;;10.00;99.90;;;;;;5016038;28;20389;-74
2022/01/02 08:19:19;;;;;;;103.72;34.90;;;10.00;99.90;;;;;;5016106;28;20485;-75
2022/01/02 08:21:45;;;;;;;103.35;34.92;;;10.00;99.90;;;;;;5015182;28;20034;-75
2022/01/02 08:24:10;;;;;;;89.10;33.75;;;10.00;99.90;;;;;;5015630;28;20057;-74
2022/01/02 08:26:36;;;;;;;89.10;35.33;;;10.00;99.90;;;;;;5014965;28;20556;-74
2022/01/02 08:29:02;;;;;;;97.57;34.95;;;10.00;99.90;;;;;;5015681;28;20026;-74
2022/01/02 08:31:29;;;;;;;96.00;35.45;;;10.00;99.90;;;;;;5015244;28;20426;-74
2022/01/02 08:33:55;;;;;;;90.80;34.75;;;10.00;99.90;;;;;;5015549;28;20029;-74
2022/01/02 08:36:20;;;;;;;94.97;34.30;;;10.00;99.90;;;;;;5015733;28;20112;-74
2022/01/02 08:38:47;;;;;;;105.68;37.15;;;9.90;99.90;;;;;;5016132;28;20152;-74
2022/01/02 08:41:13;;;;;;;75.05;33.40;;;10.00;99.90;;;;;;5015009;28;20025;-75
2022/01/02 08:43:39;;;;;;;77.22;34.22;;;9.90;99.90;;;;;;5015317;28;20474;-74
2022/01/02 08:46:05;;;;;;;81.20;33.95;;;9.90;99.90;;;;;;5015687;28;20030;-75
2022/01/02 08:48:30;;;;;;;81.50;35.72;;;9.90;99.90;;;;;;5014656;28;20080;-74
2022/01/02 08:50:56;;;;;;;73.35;34.25;;;9.90;99.90;;;;;;5015193;28;20026;-74
2022/01/02 08:53:21;;;;;;;90.80;35.08;;;9.90;99.90;;;;;;5015200;28;20034;-74
2022/01/02 08:55:47;;;;;;;68.07;31.20;;;9.80;99.90;;;;;;5015477;28;20044;-74
2022/01/02 08:58:13;;;;;;;64.90;30.38;;;9.80;99.90;;;;;;5015475;28;20037;-74
2022/01/02 09:00:38;;;;;;;56.17;30.40;;;9.90;99.90;;;;;;5014621;28;20072;-74
2022/01/02 09:03:04;;;;;;;70.25;31.98;;;9.90;99.90;;;;;;5016945;28;20029;-74
2022/01/02 09:05:30;;;;;;;60.70;30.05;;;9.90;99.90;;;;;;4997419;28;20026;-74
2022/01/02 09:07:56;;;;;;;71.30;33.05;;;9.90;99.90;;;;;;5014962;28;20018;-74
2022/01/02 09:10:22;;;;;;;63.65;32.22;;;9.90;99.90;;;;;;5024749;28;20041;-74
2022/01/02 09:12:48;;;;;;;58.83;30.42;;;9.90;99.90;;;;;;5013663;28;20099;-74
2022/01/02 09:15:13;;;;;;;62.22;32.20;;;10.00;99.90;;;;;;5014660;28;20552;-74
2022/01/02 09:17:39;;;;;;;60.92;29.95;;;9.90;99.90;;;;;;5014831;28;20034;-74
2022/01/02 09:20:06;;;;;;;62.05;31.35;;;10.00;99.90;;;;;;5014256;28;20080;-74
2022/01/02 09:22:32;;;;;;;56.45;30.80;;;9.90;99.90;;;;;;5014857;28;20022;-73
2022/01/02 09:24:58;;;;;;;53.30;31.23;;;10.00;99.90;;;;;;5014596;28;20432;-73
2022/01/02 09:27:24;;;;;;;50.65;29.60;;;10.00;99.90;;;;;;5014660;28;20030;-74
2022/01/02 09:29:49;;;;;;;49.80;29.38;;;10.00;99.90;;;;;;5014127;28;20564;-73
2022/01/02 09:32:15;;;;;;;54.55;29.58;;;10.00;99.90;;;;;;4997001;28;20026;-73
2022/01/02 09:34:41;;;;;;;52.20;29.13;;;10.10;99.90;;;;;;5014482;28;20068;-74
2022/01/02 09:37:07;;;;;;;51.30;27.15;;;10.10;99.90;;;;;;5014199;28;20100;-74
2022/01/02 09:39:33;;;;;;;48.70;27.65;;;10.10;99.90;;;;;;5014432;28;20050;-74
2022/01/02 09:41:59;;;;;;;48.38;27.77;;;10.10;99.90;;;;;;5013969;28;20030;-74
2022/01/02 09:44:24;;;;;;;51.83;28.42;;;10.20;99.90;;;;;;5014214;28;20497;-74
2022/01/02 09:46:52;;;;;;;52.95;28.13;;;10.30;99.90;;;;;;5014573;28;20022;-73
2022/01/02 09:49:20;;;;;;;49.22;27.58;;;10.30;99.90;;;;;;5014287;28;20022;-74
2022/01/02 09:51:46;;;;;;;49.20;27.85;;;10.30;99.90;;;;;;5013727;28;20474;-74
2022/01/02 09:54:11;;;;;;;43.75;24.27;;;10.30;99.90;;;;;;5014100;28;20079;-73
2022/01/02 09:56:37;;;;;;;41.22;23.95;;;10.40;99.90;;;;;;5014154;28;20030;-73
2022/01/02 09:59:03;;;;;;;47.60;24.95;;;10.40;99.90;;;;;;5014042;28;20036;-73
2022/01/02 10:01:30;;;;;;;56.10;28.15;;;10.40;99.90;;;;;;5014080;28;20037;-73
2022/01/02 10:03:57;;;;;;;45.40;23.67;;;10.40;99.90;;;;;;5013890;28;20033;-74
2022/01/02 10:06:41;;;;;;;40.28;22.00;;;10.40;99.90;;;;;;5014225;28;20018;-73
2022/01/02 10:09:25;;;;;;;;;;;10.50;99.90;;;;;;5013804;28;20541;-72
2022/01/02 10:11:51;;;;;;;42.42;23.02;;;10.50;99.90;;;;;;5013793;28;19955;-73
2022/01/02 10:14:16;;;;;;;38.28;22.08;;;10.50;99.90;;;;;;5013362;28;20144;-72
2022/01/02 10:16:43;;;;;;;37.22;22.00;;;10.50;99.90;;;;;;5013729;28;20148;-73
2022/01/02 10:19:21;;;;;;;36.83;21.15;;;10.50;99.90;;;;;;5013795;28;20022;-74
2022/01/02 10:22:00;;;;;;;42.72;23.20;;;10.50;99.90;;;;;;5013531;28;20398;-73
2022/01/02 10:24:30;;;;;;;38.35;22.27;;;10.50;99.90;;;;;;5013081;28;20029;-73
2022/01/02 10:27:02;;;;;;;32.67;20.42;;;10.50;99.90;;;;;;5014000;28;20469;-73
2022/01/02 10:29:54;;;;;;;33.28;20.10;;;10.40;99.90;;;;;;5013852;28;20872;-73
2022/01/02 10:32:29;;;;;;;34.92;20.42;;;10.40;99.90;;;;;;5013607;28;20101;-73
2022/01/02 10:35:13;;;;;;;30.73;19.58;;;10.30;99.90;;;;;;5013811;28;20100;-73
2022/01/02 10:37:44;;;;;;;31.73;18.38;;;10.30;99.90;;;;;;4995736;28;20030;-73
2022/01/02 10:40:33;;;;;;;33.67;19.23;;;10.30;99.90;;;;;;5013476;28;20474;-72
2022/01/02 10:43:00;;;;;;;42.35;19.70;;;10.30;99.90;;;;;;5013692;28;20029;-72
2022/01/02 10:45:37;;;;;;;40.33;20.05;;;10.30;99.90;;;;;;5013356;28;20028;-72
2022/01/02 10:48:06;;;;;;;38.10;20.00;;;10.30;99.90;;;;;;4994639;28;20030;-72
2022/01/02 10:50:32;;;;;;;37.92;19.65;;;10.30;99.90;;;;;;5013396;28;20029;-73
2022/01/02 10:53:10;;;;;;;39.80;17.77;;;10.30;99.90;;;;;;5013702;28;20410;-72
2022/01/02 10:55:37;;;;;;;38.95;18.92;;;10.20;99.90;;;;;;5013369;28;20104;-72
2022/01/02 10:58:07;;;;;;;28.95;16.20;;;10.30;99.90;;;;;;5012795;28;20030;-74
2022/01/02 11:00:33;;;;;;;33.13;17.60;;;10.30;99.90;;;;;;5013589;28;20030;-73
2022/01/02 11:02:59;;;;;;;35.15;17.67;;;10.30;99.90;;;;;;5013260;28;20474;-73
2022/01/02 11:05:28;;;;;;;37.10;16.85;;;10.30;99.90;;;;;;5013151;28;20037;-73
2022/01/02 11:07:59;;;;;;;35.20;15.38;;;10.30;99.90;;;;;;5013245;28;20028;-72
2022/01/02 11:10:27;;;;;;;49.38;18.50;;;10.30;99.90;;;;;;5012975;28;20055;-73
2022/01/02 11:12:53;;;;;;;36.75;15.98;;;10.20;99.90;;;;;;5013476;28;20053;-73
2022/01/02 11:15:22;;;;;;;36.92;14.98;;;10.20;99.90;;;;;;5012955;28;20033;-73
2022/01/02 11:17:48;;;;;;;27.40;13.52;;;10.20;99.90;;;;;;5013109;28;20038;-73
2022/01/02 11:20:25;;;;;;;32.83;15.60;;;10.20;99.90;;;;;;5012858;28;20109;-72
2022/01/02 11:23:29;;;;;;;33.33;16.02;;;10.10;99.90;;;;;;5013188;28;20483;-73
2022/01/02 11:26:36;;;;;;;40.72;15.88;;;10.10;99.90;;;;;;5013012;28;20053;-73
2022/01/02 11:29:02;;;;;;;32.47;15.00;;;10.10;99.90;;;;;;5007195;28;20037;-73
2022/01/02 11:31:31;;;;;;;30.10;16.20;;;10.00;99.90;;;;;;5013260;28;20030;-74
2022/01/02 11:33:57;;;;;;;35.03;16.58;;;10.00;99.90;;;;;;5012908;28;20026;-73
2022/01/02 11:36:34;;;;;;;34.95;17.35;;;10.00;99.90;;;;;;5013003;28;20026;-73
2022/01/02 11:39:08;;;;;;;31.13;17.88;;;10.00;99.90;;;;;;5012910;28;20101;-73
2022/01/02 11:41:43;;;;;;;30.80;16.02;;;10.00;99.90;;;;;;5012700;28;20037;-73
2022/01/02 11:44:18;;;;;;;26.48;14.23;;;10.00;99.90;;;;;;5012772;28;20029;-73
2022/01/02 11:46:58;;;;;;;36.42;15.52;;;10.10;99.90;;;;;;5013209;28;20030;-73
2022/01/02 11:49:38;;;;;;;29.45;13.68;;;10.10;99.90;;;;;;5012957;28;20512;-73
2022/01/02 11:52:06;;;;;;;19.70;11.77;;;10.20;99.90;;;;;;5012947;28;20105;-73
2022/01/02 11:54:32;;;;;;;23.17;12.50;;;10.20;99.90;;;;;;5012230;28;20022;-74
2022/01/02 11:57:25;;;;;;;20.65;10.75;;;10.20;99.90;;;;;;4995226;28;20072;-74
2022/01/02 11:59:52;;;;;;;22.10;11.43;;;10.20;99.90;;;;;;5014025;28;20397;-74
2022/01/02 12:02:26;;;;;;;19.13;13.15;;;10.20;99.90;;;;;;5016299;28;20261;-74
2022/01/02 12:04:58;;;;;;;16.50;10.65;;;10.20;99.90;;;;;;4998437;28;20067;-73
2022/01/02 12:07:37;;;;;;;20.00;11.10;;;10.30;99.90;;;;;;5016217;28;20203;-74
2022/01/02 12:10:14;;;;;;;25.02;11.80;;;10.30;99.90;;;;;;5015577;28;20053;-74
2022/01/02 12:13:17;;;;;;;25.00;11.48;;;10.30;99.90;;;;;;5016237;28;20018;-74
2022/01/02 12:15:43;;;;;;;28.23;11.75;;;10.20;99.90;;;;;;5016035;28;20069;-74
2022/01/02 12:18:25;;;;;;;26.95;11.85;;;10.10;99.90;;;;;;5015500;28;20049;-74
2022/01/02 12:20:51;;;;;;;29.25;12.43;;;10.10;99.90;;;;;;5015952;28;20014;-74
2022/01/02 12:23:43;;;;;;;34.45;12.70;;;10.10;99.90;;;;;;5015809;28;20106;-74
2022/01/02 12:26:21;;;;;;;27.48;12.80;;;10.00;99.90;;;;;;5015250;28;20029;-74
2022/01/02 12:29:01;;;;;;;24.63;11.63;;;10.00;99.90;;;;;;5015836;28;20018;-74
2022/01/02 12:31:44;;;;;;;27.23;12.30;;;10.00;99.90;;;;;;5015840;28;20033;-74
2022/01/02 12:34:14;;;;;;;32.92;12.95;;;10.10;99.90;;;;;;5015642;28;20083;-74
2022/01/02 12:36:42;;;;;;;32.13;11.98;;;10.10;99.90;;;;;;5015247;28;20034;-74
2022/01/02 12:39:30;;;;;;;33.10;13.80;;;10.10;99.90;;;;;;4997944;28;20493;-74
2022/01/02 12:42:04;;;;;;;30.33;14.30;;;10.00;99.90;;;;;;5015151;28;20021;-74
2022/01/02 12:44:32;;;;;;;37.33;14.70;;;10.00;99.90;;;;;;5015271;28;20033;-74
2022/01/02 12:46:59;;;;;;;31.80;14.65;;;10.00;99.90;;;;;;5015973;28;20018;-74